Aérodrome :
LOGIN :

S'inscrire | Disclaimer

   EN    FR    IT 

 










Légende :    VFR   VFR Marginal   IFR   IFR Intensif   IFR Très Intensif
Visi : 
Plafond : 
>= 8 km
>= 3000ft
5 à 8 km
1000 à 3000 ft
1500m à 5 km
500 à 1000 ft
800 à 1500m
200 à 500 ft
< 800m
< 200 ft
Symboles :   Orages  Brouillard  Fortes neiges  Fortes précipitations  Vent > 20 kt
SIGMETs :   Divers  Orages  Givrage  Turbulence  Onde Orograph.  Cendres Volcan.







- Altitude de l'aérodrome : 247 ft
- Code IATA : BLL


EKBI - Billund

DERNIER METAR :
  • 220720Z AUTO 28007KT 9999NDV NCD 07/04 Q1026

METARs EXPIRÉS :
  • 220650Z AUTO 28007KT 9999NDV NCD 06/04 Q1026
  • 220620Z AUTO 28006KT 9999NDV NCD 05/04 Q1025
  • 220550Z AUTO 28007KT 9999NDV FEW031/// 05/03 Q1025
  • 220520Z AUTO 28007KT 9999NDV NCD 05/04 Q1025
  • 220450Z AUTO 28007KT 9999NDV FEW033/// 06/04 Q1025

TAF TAF EKBI
Valide du 22 à 06h jusqu'au 23 à 06h UTC


220517Z 2206/2306 30010KT 9999 SCT025
TEMPO 2208/2216 30015G25KT SCT025TCU
BECMG 2221/2224 26020G35KT
TEMPO 2300/2306 RADZ BKN012
Pas de NOTAMs connus pour ce terrain.



MET'MAP, la Météo Aéronautique d'un coup d'oeil ! - Copyright ORBIFLY Décembre 2007 - Disclaimer

ORBIFLY MET'MAP TEAM :

Programmation & Développement : Alexandra Zaïnal
Conception & Développement : Baudouin d'Aumeries
Co-Programmation & Développement : Marc-Olivier Méhu
Soutien technique & logistique : Manuel Goepfert

Contact : metmap@orbifly.com




SOURCES & CREDITS :

   NOAA